Terminal Aerodrome Forecast
Issued by NWS Cleveland, OH

Home | Current Version | Previous Version | Text Only | Print | Product List | Glossary On
Versions: 1 2 3 4 5 6 7 8 9 10 11 12 13 14 15 16 17 18
000
FTUS41 KCLE 130900 AAB
TAFERI
TAF AMD
KERI 130902Z 1309/1406 20012G20KT P6SM -SHRA SCT045 BKN070
      TEMPO 1309/1310 4SM -TSRA BKN035CB
     FM131000 20010G18KT P6SM VCSH BKN045
     FM131200 23014G20KT P6SM -SHRA BKN060
      TEMPO 1314/1318 27015KT 3SM -TSRA BR SCT015 OVC020CB
     FM132000 24015G25KT P6SM VCSH BKN035 OVC100=

USA.gov is the U.S. government's official web portal to all federal, state and local government web resources and services.